createdAt,value
2018-07-15T00:00:21.257Z,5.07
2018-07-15T00:02:52.173Z,4.70
2018-07-15T00:05:22.857Z,5.37
2018-07-15T00:07:53.646Z,5.00
2018-07-15T00:10:24.374Z,5.10
2018-07-15T00:12:55.219Z,5.63
2018-07-15T00:15:25.945Z,4.93
2018-07-15T00:17:56.629Z,5.03
2018-07-15T00:20:27.306Z,5.03
2018-07-15T00:22:58.095Z,4.87
2018-07-15T00:25:28.715Z,4.73
2018-07-15T00:27:58.997Z,5.10
2018-07-15T00:30:29.834Z,4.90
2018-07-15T00:33:00.778Z,6.13
2018-07-15T00:35:31.535Z,5.13
2018-07-15T00:38:02.606Z,5.00
2018-07-15T00:40:33.274Z,5.57
2018-07-15T00:43:04.095Z,5.33
2018-07-15T00:45:34.746Z,4.80
2018-07-15T00:48:05.430Z,5.17
2018-07-15T00:50:36.145Z,4.77
2018-07-15T00:53:06.953Z,5.00
2018-07-15T00:55:37.572Z,4.80
2018-07-15T00:58:08.682Z,4.63
2018-07-15T01:00:43.713Z,5.10
2018-07-15T01:03:14.541Z,5.00
2018-07-15T01:05:45.014Z,5.10
2018-07-15T01:08:15.762Z,5.30
2018-07-15T01:10:46.690Z,5.10
2018-07-15T01:13:17.562Z,5.50
2018-07-15T01:15:48.308Z,5.57
2018-07-15T01:18:19.179Z,5.27
2018-07-15T01:20:49.771Z,5.07
2018-07-15T01:23:20.603Z,5.27
2018-07-15T01:25:51.342Z,4.80
2018-07-15T01:28:22.221Z,5.50
2018-07-15T01:30:52.795Z,4.80
2018-07-15T01:33:23.388Z,5.37
2018-07-15T01:35:54.223Z,5.47
2018-07-15T01:38:24.998Z,5.03
2018-07-15T01:40:55.754Z,5.43
2018-07-15T01:43:26.527Z,5.83
2018-07-15T01:45:57.210Z,5.40
2018-07-15T01:48:27.941Z,5.73
2018-07-15T01:50:58.686Z,5.17
2018-07-15T01:53:29.576Z,5.67
2018-07-15T01:56:00.253Z,5.90
2018-07-15T01:58:31.032Z,5.93
2018-07-15T02:01:01.733Z,5.90
2018-07-15T02:03:32.608Z,5.73
2018-07-15T02:06:03.291Z,6.20
2018-07-15T02:08:34.155Z,5.93
2018-07-15T02:11:04.805Z,6.57
2018-07-15T02:13:35.477Z,7.07
2018-07-15T02:16:06.189Z,6.33
2018-07-15T02:18:37.110Z,5.70
2018-07-15T02:21:07.766Z,6.47
2018-07-15T02:23:38.662Z,6.93
2018-07-15T02:26:09.362Z,6.27
2018-07-15T02:28:40.101Z,6.43
2018-07-15T02:31:10.841Z,6.50
2018-07-15T02:33:41.537Z,6.87
2018-07-15T02:36:12.852Z,6.67
2018-07-15T02:38:43.490Z,6.53
2018-07-15T02:41:14.145Z,6.57
2018-07-15T02:43:44.717Z,6.57
2018-07-15T02:46:15.397Z,6.87
2018-07-15T02:48:46.067Z,7.10
2018-07-15T02:51:16.798Z,7.37
2018-07-15T02:53:47.866Z,7.53
2018-07-15T02:56:18.553Z,7.27
2018-07-15T02:58:49.754Z,7.23
2018-07-15T03:01:20.453Z,7.20
2018-07-15T03:03:52.149Z,7.13
2018-07-15T03:06:22.873Z,7.20
2018-07-15T03:08:53.812Z,6.93
2018-07-15T03:11:24.493Z,6.90
2018-07-15T03:13:55.241Z,7.10
2018-07-15T03:16:26.027Z,6.73
2018-07-15T03:18:57.071Z,6.63
2018-07-15T03:21:27.729Z,6.50
2018-07-15T03:23:58.050Z,6.50
2018-07-15T03:26:28.754Z,7.10
2018-07-15T03:28:59.588Z,7.70
2018-07-15T03:31:30.221Z,6.97
2018-07-15T03:34:01.208Z,6.77
2018-07-15T03:36:31.893Z,7.53
2018-07-15T03:39:02.494Z,7.00
2018-07-15T03:41:33.298Z,7.20
2018-07-15T03:44:04.326Z,7.00
2018-07-15T03:46:35.066Z,7.27
2018-07-15T03:49:05.813Z,7.80
2018-07-15T03:51:36.497Z,6.80
2018-07-15T03:54:07.230Z,7.03
2018-07-15T03:56:37.961Z,7.37
2018-07-15T03:59:08.910Z,7.93
2018-07-15T04:01:39.626Z,7.63
2018-07-15T04:04:10.393Z,7.67
2018-07-15T04:06:40.942Z,7.00
2018-07-15T04:09:11.855Z,7.37
2018-07-15T04:11:42.594Z,7.40
2018-07-15T04:14:13.369Z,7.40
2018-07-15T04:16:44.159Z,6.50
2018-07-15T04:19:15.277Z,7.17
2018-07-15T04:21:45.850Z,6.83
2018-07-15T04:24:16.637Z,7.00
2018-07-15T04:26:47.397Z,7.60
2018-07-15T04:29:18.290Z,6.63
2018-07-15T04:31:48.973Z,7.60
2018-07-15T04:34:19.826Z,7.17
2018-07-15T04:36:50.645Z,7.73
2018-07-15T04:39:21.410Z,7.27
2018-07-15T04:41:52.449Z,7.07
2018-07-15T04:44:23.221Z,7.33
2018-07-15T04:46:53.933Z,6.40
2018-07-15T04:49:25.022Z,7.20
2018-07-15T04:51:55.573Z,6.80
2018-07-15T04:54:26.338Z,6.33
2018-07-15T04:56:57.037Z,6.97
2018-07-15T04:59:27.813Z,6.53
2018-07-15T05:01:58.781Z,5.63
2018-07-15T05:04:29.477Z,6.10
2018-07-15T05:07:00.162Z,5.17
2018-07-15T05:09:30.897Z,5.87
2018-07-15T05:12:01.541Z,5.80
2018-07-15T05:14:32.413Z,5.30
2018-07-15T05:17:03.009Z,5.50
2018-07-15T05:19:33.673Z,6.77
2018-07-15T05:22:04.364Z,7.87
2018-07-15T05:24:35.426Z,6.60
2018-07-15T05:27:06.128Z,5.97
2018-07-15T05:29:36.982Z,5.13
2018-07-15T05:32:07.501Z,5.00
2018-07-15T05:34:38.276Z,5.00
2018-07-15T05:37:09.122Z,4.73
2018-07-15T05:39:40.313Z,4.43
2018-07-15T05:51:12.341Z,3.93
2018-07-15T05:53:43.018Z,4.30
2018-07-15T05:56:13.714Z,4.40
2018-07-15T05:58:44.381Z,4.10
2018-07-15T06:01:15.376Z,3.90
2018-07-15T06:03:46.003Z,3.37
2018-07-15T06:06:17.232Z,3.20
2018-07-15T06:08:50.947Z,3.63
2018-07-15T06:11:21.890Z,3.70
2018-07-15T06:13:52.573Z,3.97
2018-07-15T06:16:23.352Z,3.97
2018-07-15T06:18:54.249Z,3.47
2018-07-15T06:21:24.987Z,4.00
2018-07-15T06:23:55.721Z,4.10
2018-07-15T06:26:26.591Z,4.60
2018-07-15T06:28:57.162Z,5.07
2018-07-15T06:31:27.382Z,7.67
2018-07-15T06:33:57.764Z,4.53
2018-07-15T06:36:28.653Z,4.73
2018-07-15T06:38:59.353Z,4.13
2018-07-15T06:41:29.939Z,4.30
2018-07-15T06:44:00.578Z,4.10
2018-07-15T06:46:31.442Z,4.07
2018-07-15T06:49:02.265Z,3.50
2018-07-15T06:51:32.861Z,4.50
2018-07-15T06:54:03.609Z,4.63
2018-07-15T06:56:34.386Z,3.50
2018-07-15T06:59:05.013Z,3.90
2018-07-15T07:01:35.869Z,3.50
2018-07-15T07:04:06.888Z,3.40
2018-07-15T07:06:37.562Z,3.63
2018-07-15T07:09:09.049Z,2.80
2018-07-15T07:11:39.900Z,3.40
2018-07-15T07:14:10.474Z,2.70
2018-07-15T07:16:41.365Z,3.70
2018-07-15T07:19:12.102Z,3.53
2018-07-15T07:21:43.041Z,3.40
2018-07-15T07:24:13.654Z,3.40
2018-07-15T07:26:44.402Z,3.27
2018-07-15T07:29:15.096Z,2.83
2018-07-15T07:31:45.769Z,3.53
2018-07-15T07:34:16.304Z,3.20
2018-07-15T07:36:46.985Z,2.43
2018-07-15T07:39:17.829Z,2.60
2018-07-15T07:41:48.750Z,2.57
2018-07-15T07:44:19.439Z,2.53
2018-07-15T07:46:49.965Z,2.70
2018-07-15T07:49:20.594Z,2.57
2018-07-15T07:51:51.613Z,2.37
2018-07-15T07:54:22.269Z,3.13
2018-07-15T07:56:53.098Z,3.03
2018-07-15T07:59:23.736Z,2.70
2018-07-15T08:01:54.450Z,2.87
2018-07-15T08:04:25.154Z,2.50
2018-07-15T08:06:56.029Z,2.40
2018-07-15T08:09:26.672Z,3.13
2018-07-15T08:11:57.505Z,3.00
2018-07-15T08:14:28.657Z,2.63
2018-07-15T08:16:59.562Z,2.53
2018-07-15T08:19:30.137Z,3.30
2018-07-15T08:22:01.074Z,2.40
2018-07-15T08:24:31.610Z,2.33
2018-07-15T08:27:02.498Z,2.80
2018-07-15T08:29:33.084Z,2.80
2018-07-15T08:32:04.126Z,2.60
2018-07-15T08:34:34.252Z,2.50
2018-07-15T08:37:05.133Z,2.27
2018-07-15T08:39:35.781Z,2.33
2018-07-15T08:42:06.570Z,2.12
2018-07-15T08:44:37.358Z,2.40
2018-07-15T08:47:08.068Z,2.70
2018-07-15T08:49:38.716Z,2.12
2018-07-15T08:52:09.448Z,1.98
2018-07-15T08:54:40.113Z,2.37
2018-07-15T08:57:11.119Z,2.17
2018-07-15T08:59:41.876Z,2.22
2018-07-15T09:02:11.821Z,1.92
2018-07-15T09:04:44.919Z,2.40
2018-07-15T09:07:15.488Z,2.10
2018-07-15T09:09:46.207Z,2.08
2018-07-15T09:12:16.853Z,2.22
2018-07-15T09:14:47.510Z,2.20
2018-07-15T09:17:18.316Z,2.10
2018-07-15T09:19:49.059Z,2.20
2018-07-15T09:22:19.805Z,1.80
2018-07-15T09:24:50.640Z,2.42
2018-07-15T09:27:21.365Z,2.30
2018-07-15T09:29:52.232Z,2.20
2018-07-15T09:32:22.920Z,2.65
2018-07-15T09:34:53.633Z,1.75
2018-07-15T09:37:24.290Z,2.25
2018-07-15T09:39:54.873Z,2.22
2018-07-15T09:42:25.551Z,1.75
2018-07-15T09:44:56.338Z,2.17
2018-07-15T09:47:27.118Z,3.20
2018-07-15T09:49:57.970Z,2.12
2018-07-15T09:52:28.706Z,2.22
2018-07-15T09:54:58.921Z,2.17
2018-07-15T09:57:29.485Z,2.22
2018-07-15T10:00:00.473Z,2.08
2018-07-15T10:02:31.042Z,2.02
2018-07-15T10:05:01.986Z,1.92
2018-07-15T10:07:32.577Z,2.15
2018-07-15T10:10:03.230Z,2.70
2018-07-15T10:12:33.946Z,2.22
2018-07-15T10:15:04.778Z,2.30
2018-07-15T10:17:35.700Z,2.27
2018-07-15T10:20:06.354Z,2.20
2018-07-15T10:22:36.852Z,2.77
2018-07-15T10:25:07.886Z,2.25
2018-07-15T10:27:38.474Z,1.72
2018-07-15T10:30:09.279Z,1.80
2018-07-15T10:32:39.922Z,1.70
2018-07-15T10:35:10.722Z,1.40
2018-07-15T10:37:41.386Z,1.47
2018-07-15T10:40:12.493Z,1.75
2018-07-15T10:42:43.081Z,1.27
2018-07-15T10:45:14.342Z,2.02
2018-07-15T10:47:44.917Z,1.60
2018-07-15T10:50:15.737Z,2.27
2018-07-15T10:52:46.405Z,2.70
2018-07-15T10:55:17.285Z,1.85
2018-07-15T10:57:48.026Z,1.60
2018-07-15T11:00:18.857Z,1.95
2018-07-15T11:02:49.569Z,1.70
2018-07-15T11:05:20.921Z,1.60
2018-07-15T11:07:51.598Z,1.70
2018-07-15T11:10:22.225Z,1.42
2018-07-15T11:12:52.883Z,1.60
2018-07-15T11:15:23.675Z,1.60
2018-07-15T11:17:54.247Z,1.47
2018-07-15T11:20:25.116Z,1.40
2018-07-15T11:22:55.481Z,2.12
2018-07-15T11:25:26.240Z,1.80
2018-07-15T11:27:57.176Z,2.25
2018-07-15T11:30:28.145Z,1.82
2018-07-15T11:32:58.300Z,1.80
2018-07-15T11:35:28.801Z,1.57
2018-07-15T11:37:59.649Z,1.70
2018-07-15T11:40:30.257Z,1.42
2018-07-15T11:43:01.168Z,1.70
2018-07-15T11:45:32.026Z,1.62
2018-07-15T11:48:02.412Z,2.22
2018-07-15T11:50:33.062Z,1.25
2018-07-15T11:53:05.192Z,1.40
2018-07-15T11:55:35.913Z,1.32
2018-07-15T11:58:06.705Z,1.70
2018-07-15T12:00:37.327Z,1.50
2018-07-15T12:03:08.176Z,1.95
2018-07-15T12:05:38.297Z,2.00
2018-07-15T12:08:09.428Z,1.77
2018-07-15T12:10:40.214Z,1.60
2018-07-15T12:13:11.105Z,1.87
2018-07-15T12:15:41.886Z,2.08
2018-07-15T12:18:13.044Z,2.10
2018-07-15T12:20:43.625Z,1.80
2018-07-15T12:23:14.766Z,1.80
2018-07-15T12:25:45.417Z,1.40
2018-07-15T12:28:16.128Z,1.52
2018-07-15T12:30:46.916Z,1.75
2018-07-15T12:33:17.633Z,1.72
2018-07-15T12:35:48.386Z,1.40
2018-07-15T12:38:19.259Z,1.57
2018-07-15T12:40:49.905Z,1.40
2018-07-15T12:43:20.113Z,1.65
2018-07-15T12:45:50.836Z,1.50
2018-07-15T12:48:21.680Z,1.40
2018-07-15T12:50:52.310Z,1.42
2018-07-15T12:53:24.198Z,1.50
2018-07-15T12:55:55.054Z,1.62
2018-07-15T12:58:25.942Z,1.80
2018-07-15T13:00:56.675Z,1.47
2018-07-15T13:03:27.582Z,3.35
2018-07-15T13:05:58.258Z,2.00
2018-07-15T13:08:29.089Z,1.80
2018-07-15T13:10:59.867Z,1.60
2018-07-15T13:13:30.910Z,1.72
2018-07-15T13:16:01.559Z,1.45
2018-07-15T13:18:32.705Z,1.80
2018-07-15T13:21:03.369Z,1.70
2018-07-15T13:23:34.114Z,1.70
2018-07-15T13:26:04.905Z,1.60
2018-07-15T13:28:35.626Z,2.00
2018-07-15T13:31:06.394Z,1.30
2018-07-15T13:33:37.107Z,1.98
2018-07-15T13:36:07.958Z,1.67
2018-07-15T13:38:38.746Z,1.47
2018-07-15T13:41:09.502Z,1.55
2018-07-15T13:43:40.201Z,1.50
2018-07-15T13:46:10.821Z,1.80
2018-07-15T13:48:41.594Z,1.65
2018-07-15T13:51:12.166Z,1.47
2018-07-15T13:53:43.095Z,1.80
2018-07-15T13:56:13.836Z,1.82
2018-07-15T13:58:44.698Z,1.95
2018-07-15T14:01:15.298Z,1.87
2018-07-15T14:03:46.335Z,2.65
2018-07-15T14:06:17.018Z,2.12
2018-07-15T14:08:47.962Z,2.75
2018-07-15T14:11:18.639Z,1.77
2018-07-15T14:13:49.480Z,1.90
2018-07-15T14:16:20.138Z,2.30
2018-07-15T14:18:50.957Z,1.92
2018-07-15T14:21:21.748Z,1.72
2018-07-15T14:23:52.655Z,1.67
2018-07-15T14:26:23.250Z,2.10
2018-07-15T14:28:53.945Z,2.10
2018-07-15T14:31:24.582Z,1.85
2018-07-15T14:33:55.551Z,1.98
2018-07-15T14:36:26.286Z,1.87
2018-07-15T14:38:57.157Z,1.92
2018-07-15T14:41:27.778Z,2.15
2018-07-15T14:43:58.849Z,1.90
2018-07-15T14:46:29.457Z,1.87
2018-07-15T14:49:00.217Z,1.80
2018-07-15T14:51:30.890Z,1.90
2018-07-15T14:54:01.721Z,1.92
2018-07-15T14:56:32.363Z,2.55
2018-07-15T14:59:03.327Z,2.10
2018-07-15T15:01:33.821Z,2.30
2018-07-15T15:04:04.546Z,1.80
2018-07-15T15:06:35.242Z,1.87
2018-07-15T15:09:07.099Z,2.17
2018-07-15T15:11:37.793Z,2.27
2018-07-15T15:14:07.790Z,2.62
2018-07-15T15:16:38.353Z,2.10
2018-07-15T15:19:09.478Z,1.67
2018-07-15T15:21:40.139Z,2.00
2018-07-15T15:24:10.800Z,2.27
2018-07-15T15:26:41.393Z,2.00
2018-07-15T15:29:12.034Z,1.95
2018-07-15T15:31:42.727Z,2.05
2018-07-15T15:34:13.546Z,1.82
2018-07-15T15:36:44.117Z,2.00
2018-07-15T15:39:14.863Z,2.25
2018-07-15T15:41:45.541Z,2.30
2018-07-15T15:44:16.158Z,2.05
2018-07-15T15:46:46.883Z,2.02
2018-07-15T15:49:17.600Z,2.55
2018-07-15T15:51:48.614Z,1.85
2018-07-15T15:54:19.411Z,1.92
2018-07-15T15:56:50.057Z,2.20
2018-07-15T15:59:20.937Z,1.82
2018-07-15T16:01:51.633Z,1.98
2018-07-15T16:04:22.576Z,1.67
2018-07-15T16:06:53.460Z,1.90
2018-07-15T16:09:24.391Z,1.80
2018-07-15T16:11:55.434Z,1.70
2018-07-15T16:14:26.258Z,1.82
2018-07-15T16:16:56.926Z,2.10
2018-07-15T16:19:27.754Z,2.10
2018-07-15T16:21:58.374Z,1.95
2018-07-15T16:24:29.158Z,2.00
2018-07-15T16:26:59.954Z,2.20
2018-07-15T16:29:30.914Z,2.35
2018-07-15T16:32:01.690Z,13.90
2018-07-15T16:34:31.852Z,11.75
2018-07-15T16:37:02.658Z,8.85
2018-07-15T16:39:33.444Z,7.00
2018-07-15T16:42:04.231Z,4.45
2018-07-15T16:44:34.962Z,4.25
2018-07-15T16:47:05.645Z,4.17
2018-07-15T16:49:36.538Z,6.33
2018-07-15T16:52:07.243Z,6.65
2018-07-15T16:54:37.645Z,10.23
2018-07-15T16:57:08.410Z,8.35
2018-07-15T16:59:39.189Z,21.50
2018-07-15T17:02:09.847Z,10.78
2018-07-15T17:04:40.781Z,5.35
2018-07-15T17:07:11.426Z,7.50
2018-07-15T17:09:42.356Z,46.50
2018-07-15T17:12:13.257Z,14.53
2018-07-15T17:14:44.129Z,38.33
2018-07-15T17:17:14.865Z,23.67
2018-07-15T17:19:45.699Z,28.83
2018-07-15T17:22:16.329Z,19.80
2018-07-15T17:24:47.211Z,11.87
2018-07-15T17:27:17.902Z,24.53
2018-07-15T17:29:48.875Z,4.33
2018-07-15T17:32:19.667Z,3.00
2018-07-15T17:34:50.317Z,3.23
2018-07-15T17:37:20.925Z,3.60
2018-07-15T17:39:51.742Z,4.17
2018-07-15T17:42:22.430Z,4.10
2018-07-15T17:44:53.330Z,4.50
2018-07-15T17:47:23.972Z,3.53
2018-07-15T17:49:54.654Z,2.80
2018-07-15T17:52:25.389Z,2.43
2018-07-15T17:54:56.122Z,2.70
2018-07-15T17:57:26.805Z,2.10
2018-07-15T17:59:57.642Z,2.90
2018-07-15T18:02:28.477Z,2.73
2018-07-15T18:04:59.620Z,2.50
2018-07-15T18:07:30.146Z,3.43
2018-07-15T18:10:00.937Z,3.33
2018-07-15T18:12:31.614Z,4.60
2018-07-15T18:15:02.314Z,5.03
2018-07-15T18:17:32.919Z,5.33
2018-07-15T18:20:04.048Z,5.07
2018-07-15T18:22:34.309Z,4.70
2018-07-15T18:25:05.071Z,4.80
2018-07-15T18:27:35.710Z,4.30
2018-07-15T18:30:06.735Z,4.90
2018-07-15T18:32:37.270Z,4.80
2018-07-15T18:35:08.052Z,5.80
2018-07-15T18:37:38.942Z,4.60
2018-07-15T18:40:09.889Z,4.20
2018-07-15T18:42:40.515Z,3.37
2018-07-15T18:45:11.191Z,4.40
2018-07-15T18:47:41.894Z,83.57
2018-07-15T18:50:12.686Z,79.57
2018-07-15T18:52:43.345Z,69.70
2018-07-15T18:55:14.370Z,40.80
2018-07-15T18:57:45.022Z,22.17
2018-07-15T19:00:15.585Z,18.23
2018-07-15T19:02:46.287Z,12.97
2018-07-15T19:05:17.100Z,10.10
2018-07-15T19:07:47.797Z,5.90
2018-07-15T19:10:18.676Z,6.07
2018-07-15T19:12:49.374Z,4.20
2018-07-15T19:15:20.103Z,5.20
2018-07-15T19:17:50.794Z,4.27
2018-07-15T19:20:21.805Z,4.10
2018-07-15T19:22:52.451Z,4.23
2018-07-15T19:25:23.269Z,3.83
2018-07-15T19:27:53.827Z,3.43
2018-07-15T19:30:24.738Z,4.87
2018-07-15T19:32:55.485Z,4.77
2018-07-15T19:35:26.285Z,3.87
2018-07-15T19:37:56.957Z,4.37
2018-07-15T19:40:27.827Z,3.87
2018-07-15T19:43:00.814Z,5.17
2018-07-15T19:45:31.665Z,3.90
2018-07-15T19:48:02.344Z,4.83
2018-07-15T19:50:33.006Z,37.13
2018-07-15T19:53:03.717Z,29.40
2018-07-15T19:55:34.506Z,12.00
2018-07-15T19:58:05.237Z,6.63
2018-07-15T20:00:35.958Z,4.77
2018-07-15T20:03:06.661Z,4.23
2018-07-15T20:05:37.429Z,4.03
2018-07-15T20:08:08.253Z,4.20
2018-07-15T20:10:38.989Z,4.93
2018-07-15T20:13:09.698Z,3.93
2018-07-15T20:15:40.569Z,4.40
2018-07-15T20:18:11.169Z,4.13
2018-07-15T20:20:42.059Z,4.03
2018-07-15T20:23:12.623Z,3.70
2018-07-15T20:25:43.510Z,4.27
2018-07-15T20:28:14.182Z,4.10
2018-07-15T20:30:44.870Z,4.30
2018-07-15T20:33:15.731Z,4.07
2018-07-15T20:35:46.502Z,4.13
2018-07-15T20:38:17.225Z,4.73
2018-07-15T20:40:48.113Z,4.27
2018-07-15T20:43:18.805Z,3.53
2018-07-15T20:45:49.593Z,3.67
2018-07-15T20:48:20.305Z,3.50
2018-07-15T20:50:50.951Z,3.53
2018-07-15T20:53:21.674Z,3.20
2018-07-15T20:55:52.499Z,3.20
2018-07-15T20:58:23.196Z,3.10
2018-07-15T21:00:53.901Z,3.40
2018-07-15T21:03:24.562Z,2.83
2018-07-15T21:05:55.387Z,3.93
2018-07-15T21:08:26.024Z,3.40
2018-07-15T21:10:56.981Z,3.00
2018-07-15T21:13:27.694Z,3.23
2018-07-15T21:15:58.527Z,3.40
2018-07-15T21:18:29.077Z,2.93
2018-07-15T21:20:59.991Z,3.10
2018-07-15T21:23:30.629Z,3.30
2018-07-15T21:26:01.772Z,3.03
2018-07-15T21:28:32.565Z,3.03
2018-07-15T21:31:03.462Z,3.90
2018-07-15T21:33:34.075Z,3.00
2018-07-15T21:36:04.826Z,3.30
2018-07-15T21:38:35.622Z,3.47
2018-07-15T21:41:06.314Z,3.23
2018-07-15T21:43:36.369Z,3.43
2018-07-15T21:46:07.427Z,3.13
2018-07-15T21:48:38.210Z,3.17
2018-07-15T21:51:10.005Z,3.30
2018-07-15T21:53:41.241Z,3.40
2018-07-15T21:56:12.062Z,3.00
2018-07-15T21:58:42.766Z,3.30
2018-07-15T22:01:13.710Z,3.30
2018-07-15T22:03:44.463Z,3.50
2018-07-15T22:06:31.153Z,3.43
2018-07-15T22:09:17.962Z,3.10
2018-07-15T22:11:48.794Z,3.33
2018-07-15T22:14:19.512Z,3.73
2018-07-15T22:16:50.446Z,2.90
2018-07-15T22:19:21.242Z,3.40
2018-07-15T22:21:52.048Z,3.23
2018-07-15T22:24:22.737Z,3.27
2018-07-15T22:26:53.572Z,3.23
2018-07-15T22:29:24.203Z,3.03
2018-07-15T22:31:55.898Z,3.57
2018-07-15T22:34:26.486Z,3.13
2018-07-15T22:36:57.322Z,3.40
2018-07-15T22:39:28.059Z,3.70
2018-07-15T22:41:58.993Z,3.40
2018-07-15T22:44:29.646Z,3.57
2018-07-15T22:47:02.202Z,3.80
2018-07-15T22:49:32.891Z,3.67
2018-07-15T22:52:03.856Z,3.37
2018-07-15T22:54:34.506Z,3.57
2018-07-15T22:57:05.278Z,3.97
2018-07-15T22:59:35.977Z,3.90
2018-07-15T23:02:06.650Z,3.60
2018-07-15T23:05:53.930Z,4.13
2018-07-15T23:08:25.730Z,3.33
2018-07-15T23:10:56.403Z,3.50
2018-07-15T23:13:27.261Z,3.30
2018-07-15T23:15:57.909Z,3.50
2018-07-15T23:18:28.794Z,3.47
2018-07-15T23:20:59.393Z,3.30
2018-07-15T23:23:30.298Z,3.30
2018-07-15T23:26:00.933Z,3.63
2018-07-15T23:28:31.698Z,3.47
2018-07-15T23:31:01.705Z,3.83
2018-07-15T23:33:32.621Z,3.93
2018-07-15T23:36:03.206Z,3.90
2018-07-15T23:38:34.121Z,3.70
2018-07-15T23:41:04.212Z,3.87
2018-07-15T23:43:34.773Z,3.30
2018-07-15T23:46:05.460Z,3.97
2018-07-15T23:48:36.121Z,3.80
2018-07-15T23:51:07.082Z,3.67
2018-07-15T23:53:37.775Z,3.73
2018-07-15T23:56:08.885Z,3.43
2018-07-15T23:58:39.542Z,3.47
